sensor_id;sensor_type;location;lat;lon;timestamp;temperature;humidity
17152;DHT22;8691;50.828;4.700;2022-12-22T00:02:43;10.20;99.90
17152;DHT22;8691;50.828;4.700;2022-12-22T00:05:27;10.20;99.90
17152;DHT22;8691;50.828;4.700;2022-12-22T00:08:13;10.20;99.90
17152;DHT22;8691;50.828;4.700;2022-12-22T00:10:58;10.20;99.90
17152;DHT22;8691;50.828;4.700;2022-12-22T00:13:42;10.20;99.90
17152;DHT22;8691;50.828;4.700;2022-12-22T00:16:28;10.20;99.90
17152;DHT22;8691;50.828;4.700;2022-12-22T00:19:12;10.20;99.90
17152;DHT22;8691;50.828;4.700;2022-12-22T00:21:57;10.20;99.90
17152;DHT22;8691;50.828;4.700;2022-12-22T00:24:40;10.20;99.90
17152;DHT22;8691;50.828;4.700;2022-12-22T00:27:27;10.20;99.90
17152;DHT22;8691;50.828;4.700;2022-12-22T00:30:14;10.20;99.90
17152;DHT22;8691;50.828;4.700;2022-12-22T00:32:59;10.20;99.90
17152;DHT22;8691;50.828;4.700;2022-12-22T00:35:43;10.20;99.90
17152;DHT22;8691;50.828;4.700;2022-12-22T00:38:28;10.20;99.90
17152;DHT22;8691;50.828;4.700;2022-12-22T00:41:13;10.30;99.90
17152;DHT22;8691;50.828;4.700;2022-12-22T00:43:57;10.20;99.90
17152;DHT22;8691;50.828;4.700;2022-12-22T00:46:42;10.20;99.90
17152;DHT22;8691;50.828;4.700;2022-12-22T00:49:27;10.20;99.90
17152;DHT22;8691;50.828;4.700;2022-12-22T00:52:12;10.20;99.90
17152;DHT22;8691;50.828;4.700;2022-12-22T00:54:57;10.20;99.90
17152;DHT22;8691;50.828;4.700;2022-12-22T00:57:42;10.20;99.90
17152;DHT22;8691;50.828;4.700;2022-12-22T01:00:27;10.20;99.90
17152;DHT22;8691;50.828;4.700;2022-12-22T01:03:12;10.20;99.90
17152;DHT22;8691;50.828;4.700;2022-12-22T01:05:57;10.10;99.90
17152;DHT22;8691;50.828;4.700;2022-12-22T01:08:41;10.10;99.90
17152;DHT22;8691;50.828;4.700;2022-12-22T01:11:26;10.10;99.90
17152;DHT22;8691;50.828;4.700;2022-12-22T01:14:12;10.10;99.90
17152;DHT22;8691;50.828;4.700;2022-12-22T01:16:56;10.10;99.90
17152;DHT22;8691;50.828;4.700;2022-12-22T01:19:41;10.10;99.90
17152;DHT22;8691;50.828;4.700;2022-12-22T01:22:26;10.10;99.90
17152;DHT22;8691;50.828;4.700;2022-12-22T01:25:12;10.10;99.90
17152;DHT22;8691;50.828;4.700;2022-12-22T01:27:55;10.00;99.90
17152;DHT22;8691;50.828;4.700;2022-12-22T01:30:41;10.10;99.90
17152;DHT22;8691;50.828;4.700;2022-12-22T01:33:25;10.00;99.90
17152;DHT22;8691;50.828;4.700;2022-12-22T01:36:10;10.00;99.90
17152;DHT22;8691;50.828;4.700;2022-12-22T01:38:55;10.00;99.90
17152;DHT22;8691;50.828;4.700;2022-12-22T01:41:39;10.00;99.90
17152;DHT22;8691;50.828;4.700;2022-12-22T01:44:24;10.00;99.90
17152;DHT22;8691;50.828;4.700;2022-12-22T01:50:12;10.00;99.90
17152;DHT22;8691;50.828;4.700;2022-12-22T01:52:56;10.10;99.90
17152;DHT22;8691;50.828;4.700;2022-12-22T01:55:41;10.10;99.90
17152;DHT22;8691;50.828;4.700;2022-12-22T01:58:27;10.10;99.90
17152;DHT22;8691;50.828;4.700;2022-12-22T02:01:12;10.10;99.90
17152;DHT22;8691;50.828;4.700;2022-12-22T02:03:57;10.10;99.90
17152;DHT22;8691;50.828;4.700;2022-12-22T02:06:42;10.10;99.90
17152;DHT22;8691;50.828;4.700;2022-12-22T02:09:32;10.10;99.90
17152;DHT22;8691;50.828;4.700;2022-12-22T02:12:23;10.10;99.90
17152;DHT22;8691;50.828;4.700;2022-12-22T02:18:18;10.10;99.90
17152;DHT22;8691;50.828;4.700;2022-12-22T02:21:03;10.10;99.90
17152;DHT22;8691;50.828;4.700;2022-12-22T02:27:06;10.10;99.90
17152;DHT22;8691;50.828;4.700;2022-12-22T02:29:52;10.20;99.90
17152;DHT22;8691;50.828;4.700;2022-12-22T02:32:36;10.20;99.90
17152;DHT22;8691;50.828;4.700;2022-12-22T02:35:20;10.30;99.90
17152;DHT22;8691;50.828;4.700;2022-12-22T02:41:13;10.30;99.90
17152;DHT22;8691;50.828;4.700;2022-12-22T02:47:19;10.30;99.90
17152;DHT22;8691;50.828;4.700;2022-12-22T02:52:54;10.20;99.90
17152;DHT22;8691;50.828;4.700;2022-12-22T02:55:38;10.20;99.90
17152;DHT22;8691;50.828;4.700;2022-12-22T02:58:23;10.20;99.90
17152;DHT22;8691;50.828;4.700;2022-12-22T03:01:08;10.10;99.90
17152;DHT22;8691;50.828;4.700;2022-12-22T03:03:52;10.10;99.90
17152;DHT22;8691;50.828;4.700;2022-12-22T03:06:37;10.00;99.90
17152;DHT22;8691;50.828;4.700;2022-12-22T03:09:21;10.00;99.90
17152;DHT22;8691;50.828;4.700;2022-12-22T03:12:06;10.00;99.90
17152;DHT22;8691;50.828;4.700;2022-12-22T03:14:51;10.00;99.90
17152;DHT22;8691;50.828;4.700;2022-12-22T03:17:36;10.00;99.90
17152;DHT22;8691;50.828;4.700;2022-12-22T03:20:20;10.00;99.90
17152;DHT22;8691;50.828;4.700;2022-12-22T03:23:05;10.00;99.90
17152;DHT22;8691;50.828;4.700;2022-12-22T03:25:50;9.90;99.90
17152;DHT22;8691;50.828;4.700;2022-12-22T03:28:17;9.90;99.90
17152;DHT22;8691;50.828;4.700;2022-12-22T03:30:44;10.00;99.90
17152;DHT22;8691;50.828;4.700;2022-12-22T03:33:11;10.00;99.90
17152;DHT22;8691;50.828;4.700;2022-12-22T03:35:37;10.10;99.90
17152;DHT22;8691;50.828;4.700;2022-12-22T03:38:04;10.10;99.90
17152;DHT22;8691;50.828;4.700;2022-12-22T03:40:30;10.10;99.90
17152;DHT22;8691;50.828;4.700;2022-12-22T03:42:57;10.00;99.90
17152;DHT22;8691;50.828;4.700;2022-12-22T03:45:42;10.00;99.90
17152;DHT22;8691;50.828;4.700;2022-12-22T03:48:26;10.00;99.90
17152;DHT22;8691;50.828;4.700;2022-12-22T03:50:53;10.00;99.90
17152;DHT22;8691;50.828;4.700;2022-12-22T03:53:20;10.00;99.90
17152;DHT22;8691;50.828;4.700;2022-12-22T03:55:46;10.00;99.90
17152;DHT22;8691;50.828;4.700;2022-12-22T03:58:13;9.90;99.90
17152;DHT22;8691;50.828;4.700;2022-12-22T04:00:39;9.90;99.90
17152;DHT22;8691;50.828;4.700;2022-12-22T04:03:06;9.80;99.90
17152;DHT22;8691;50.828;4.700;2022-12-22T04:05:33;9.80;99.90
17152;DHT22;8691;50.828;4.700;2022-12-22T04:08:00;9.80;99.90
17152;DHT22;8691;50.828;4.700;2022-12-22T04:10:27;9.80;99.90
17152;DHT22;8691;50.828;4.700;2022-12-22T04:13:11;9.80;99.90
17152;DHT22;8691;50.828;4.700;2022-12-22T04:15:38;9.80;99.90
17152;DHT22;8691;50.828;4.700;2022-12-22T04:18:05;9.80;99.90
17152;DHT22;8691;50.828;4.700;2022-12-22T04:20:31;9.80;99.90
17152;DHT22;8691;50.828;4.700;2022-12-22T04:22:58;9.80;99.90
17152;DHT22;8691;50.828;4.700;2022-12-22T04:25:25;9.80;99.90
17152;DHT22;8691;50.828;4.700;2022-12-22T04:27:51;9.80;99.90
17152;DHT22;8691;50.828;4.700;2022-12-22T04:30:18;9.80;99.90
17152;DHT22;8691;50.828;4.700;2022-12-22T04:32:44;9.80;99.90
17152;DHT22;8691;50.828;4.700;2022-12-22T04:35:12;9.80;99.90
17152;DHT22;8691;50.828;4.700;2022-12-22T04:37:38;9.90;99.90
17152;DHT22;8691;50.828;4.700;2022-12-22T04:40:05;9.90;99.90
17152;DHT22;8691;50.828;4.700;2022-12-22T04:42:32;10.00;99.90
17152;DHT22;8691;50.828;4.700;2022-12-22T04:44:59;10.00;99.90
17152;DHT22;8691;50.828;4.700;2022-12-22T04:47:26;10.10;99.90
17152;DHT22;8691;50.828;4.700;2022-12-22T04:49:52;10.00;99.90
17152;DHT22;8691;50.828;4.700;2022-12-22T04:52:19;10.00;99.90
17152;DHT22;8691;50.828;4.700;2022-12-22T04:54:46;10.00;99.90
17152;DHT22;8691;50.828;4.700;2022-12-22T04:57:12;10.00;99.90
17152;DHT22;8691;50.828;4.700;2022-12-22T04:59:39;10.00;99.90
17152;DHT22;8691;50.828;4.700;2022-12-22T05:02:06;10.00;99.90
17152;DHT22;8691;50.828;4.700;2022-12-22T05:04:32;10.00;99.90
17152;DHT22;8691;50.828;4.700;2022-12-22T05:06:59;10.00;99.90
17152;DHT22;8691;50.828;4.700;2022-12-22T05:09:25;10.10;99.90
17152;DHT22;8691;50.828;4.700;2022-12-22T05:11:52;10.10;99.90
17152;DHT22;8691;50.828;4.700;2022-12-22T05:14:19;10.10;99.90
17152;DHT22;8691;50.828;4.700;2022-12-22T05:16:46;10.10;99.90
17152;DHT22;8691;50.828;4.700;2022-12-22T05:19:13;10.20;99.90
17152;DHT22;8691;50.828;4.700;2022-12-22T05:21:39;10.20;99.90
17152;DHT22;8691;50.828;4.700;2022-12-22T05:24:06;10.20;99.90
17152;DHT22;8691;50.828;4.700;2022-12-22T05:26:33;10.20;99.90
17152;DHT22;8691;50.828;4.700;2022-12-22T05:29:00;10.20;99.90
17152;DHT22;8691;50.828;4.700;2022-12-22T05:31:26;10.20;99.90
17152;DHT22;8691;50.828;4.700;2022-12-22T05:33:53;10.20;99.90
17152;DHT22;8691;50.828;4.700;2022-12-22T05:36:20;10.20;99.90
17152;DHT22;8691;50.828;4.700;2022-12-22T05:38:46;10.20;99.90
17152;DHT22;8691;50.828;4.700;2022-12-22T05:41:13;10.20;99.90
17152;DHT22;8691;50.828;4.700;2022-12-22T05:43:40;10.20;99.90
17152;DHT22;8691;50.828;4.700;2022-12-22T05:46:07;10.20;99.90
17152;DHT22;8691;50.828;4.700;2022-12-22T05:48:33;10.20;99.90
17152;DHT22;8691;50.828;4.700;2022-12-22T05:51:00;10.30;99.90
17152;DHT22;8691;50.828;4.700;2022-12-22T05:53:27;10.30;99.90
17152;DHT22;8691;50.828;4.700;2022-12-22T05:55:53;10.30;99.90
17152;DHT22;8691;50.828;4.700;2022-12-22T05:58:21;10.20;99.90
17152;DHT22;8691;50.828;4.700;2022-12-22T06:00:47;10.20;99.90
17152;DHT22;8691;50.828;4.700;2022-12-22T06:03:15;10.20;99.90
17152;DHT22;8691;50.828;4.700;2022-12-22T06:05:41;10.20;99.90
17152;DHT22;8691;50.828;4.700;2022-12-22T06:08:09;10.20;99.90
17152;DHT22;8691;50.828;4.700;2022-12-22T06:10:35;10.20;99.90
17152;DHT22;8691;50.828;4.700;2022-12-22T06:13:03;10.20;99.90
17152;DHT22;8691;50.828;4.700;2022-12-22T06:15:29;10.20;99.90
17152;DHT22;8691;50.828;4.700;2022-12-22T06:17:57;10.20;99.90
17152;DHT22;8691;50.828;4.700;2022-12-22T06:20:23;10.20;99.90
17152;DHT22;8691;50.828;4.700;2022-12-22T06:22:51;10.20;99.90
17152;DHT22;8691;50.828;4.700;2022-12-22T06:25:17;10.20;99.90
17152;DHT22;8691;50.828;4.700;2022-12-22T06:27:45;10.10;99.90
17152;DHT22;8691;50.828;4.700;2022-12-22T06:30:11;10.10;99.90
17152;DHT22;8691;50.828;4.700;2022-12-22T06:32:38;10.10;99.90
17152;DHT22;8691;50.828;4.700;2022-12-22T06:35:05;10.10;99.90
17152;DHT22;8691;50.828;4.700;2022-12-22T06:37:31;10.10;99.90
17152;DHT22;8691;50.828;4.700;2022-12-22T06:39:59;10.10;99.90
17152;DHT22;8691;50.828;4.700;2022-12-22T06:42:25;10.10;99.90
17152;DHT22;8691;50.828;4.700;2022-12-22T06:45:10;10.10;99.90
17152;DHT22;8691;50.828;4.700;2022-12-22T06:47:37;10.10;99.90
17152;DHT22;8691;50.828;4.700;2022-12-22T06:50:04;10.10;99.90
17152;DHT22;8691;50.828;4.700;2022-12-22T06:52:31;10.10;99.90
17152;DHT22;8691;50.828;4.700;2022-12-22T06:54:57;10.10;99.90
17152;DHT22;8691;50.828;4.700;2022-12-22T06:57:24;10.10;99.90
17152;DHT22;8691;50.828;4.700;2022-12-22T06:59:50;10.10;99.90
17152;DHT22;8691;50.828;4.700;2022-12-22T07:02:17;10.10;99.90
17152;DHT22;8691;50.828;4.700;2022-12-22T07:04:44;10.10;99.90
17152;DHT22;8691;50.828;4.700;2022-12-22T07:07:10;10.10;99.90
17152;DHT22;8691;50.828;4.700;2022-12-22T07:09:37;10.10;99.90
17152;DHT22;8691;50.828;4.700;2022-12-22T07:12:04;10.00;99.90
17152;DHT22;8691;50.828;4.700;2022-12-22T07:14:30;10.00;99.90
17152;DHT22;8691;50.828;4.700;2022-12-22T07:16:57;10.00;99.90
17152;DHT22;8691;50.828;4.700;2022-12-22T07:19:23;10.00;99.90
17152;DHT22;8691;50.828;4.700;2022-12-22T07:21:51;10.10;99.90
17152;DHT22;8691;50.828;4.700;2022-12-22T07:24:17;10.00;99.90
17152;DHT22;8691;50.828;4.700;2022-12-22T07:26:45;9.90;99.90
17152;DHT22;8691;50.828;4.700;2022-12-22T07:29:11;10.00;99.90
17152;DHT22;8691;50.828;4.700;2022-12-22T07:31:38;10.00;99.90
17152;DHT22;8691;50.828;4.700;2022-12-22T07:34:05;10.00;99.90
17152;DHT22;8691;50.828;4.700;2022-12-22T07:36:32;10.00;99.90
17152;DHT22;8691;50.828;4.700;2022-12-22T07:38:59;9.90;99.90
17152;DHT22;8691;50.828;4.700;2022-12-22T07:41:26;9.90;99.90
17152;DHT22;8691;50.828;4.700;2022-12-22T07:44:11;9.90;99.90
17152;DHT22;8691;50.828;4.700;2022-12-22T07:46:38;9.90;99.90
17152;DHT22;8691;50.828;4.700;2022-12-22T07:49:05;9.80;99.90
17152;DHT22;8691;50.828;4.700;2022-12-22T07:51:49;9.80;99.90
17152;DHT22;8691;50.828;4.700;2022-12-22T07:54:16;9.70;99.90
17152;DHT22;8691;50.828;4.700;2022-12-22T07:56:44;9.70;99.90
17152;DHT22;8691;50.828;4.700;2022-12-22T07:59:09;9.70;99.90
17152;DHT22;8691;50.828;4.700;2022-12-22T08:01:36;9.70;99.90
17152;DHT22;8691;50.828;4.700;2022-12-22T08:04:02;9.70;99.90
17152;DHT22;8691;50.828;4.700;2022-12-22T08:06:31;9.60;99.90
17152;DHT22;8691;50.828;4.700;2022-12-22T08:08:56;9.70;99.90
17152;DHT22;8691;50.828;4.700;2022-12-22T08:11:24;9.60;99.90
17152;DHT22;8691;50.828;4.700;2022-12-22T08:13:50;9.60;99.90
17152;DHT22;8691;50.828;4.700;2022-12-22T08:16:18;9.60;99.90
17152;DHT22;8691;50.828;4.700;2022-12-22T08:18:44;9.60;99.90
17152;DHT22;8691;50.828;4.700;2022-12-22T08:21:11;9.60;99.90
17152;DHT22;8691;50.828;4.700;2022-12-22T08:23:37;9.60;99.90
17152;DHT22;8691;50.828;4.700;2022-12-22T08:28:55;9.60;99.90
17152;DHT22;8691;50.828;4.700;2022-12-22T08:31:18;9.60;99.90
17152;DHT22;8691;50.828;4.700;2022-12-22T08:33:45;9.70;99.90
17152;DHT22;8691;50.828;4.700;2022-12-22T08:36:12;9.70;99.90
17152;DHT22;8691;50.828;4.700;2022-12-22T08:38:38;9.80;99.90
17152;DHT22;8691;50.828;4.700;2022-12-22T08:41:06;9.70;99.90
17152;DHT22;8691;50.828;4.700;2022-12-22T08:43:32;9.70;99.90
17152;DHT22;8691;50.828;4.700;2022-12-22T08:45:58;9.60;99.90
17152;DHT22;8691;50.828;4.700;2022-12-22T08:48:25;9.70;99.90
17152;DHT22;8691;50.828;4.700;2022-12-22T08:50:51;9.80;99.90
17152;DHT22;8691;50.828;4.700;2022-12-22T08:53:18;9.80;99.90
17152;DHT22;8691;50.828;4.700;2022-12-22T08:55:51;9.70;99.90
17152;DHT22;8691;50.828;4.700;2022-12-22T08:58:17;9.70;99.90
17152;DHT22;8691;50.828;4.700;2022-12-22T09:00:44;9.60;99.90
17152;DHT22;8691;50.828;4.700;2022-12-22T09:03:10;9.60;99.90
17152;DHT22;8691;50.828;4.700;2022-12-22T09:05:37;9.50;99.90
17152;DHT22;8691;50.828;4.700;2022-12-22T09:08:04;9.40;99.90
17152;DHT22;8691;50.828;4.700;2022-12-22T09:10:31;9.40;99.90
17152;DHT22;8691;50.828;4.700;2022-12-22T09:12:57;9.40;99.90
17152;DHT22;8691;50.828;4.700;2022-12-22T09:15:24;9.30;99.90
17152;DHT22;8691;50.828;4.700;2022-12-22T09:17:51;9.30;99.90
17152;DHT22;8691;50.828;4.700;2022-12-22T09:20:18;9.30;99.90
17152;DHT22;8691;50.828;4.700;2022-12-22T09:22:45;9.60;99.90
17152;DHT22;8691;50.828;4.700;2022-12-22T09:25:12;9.60;99.90
17152;DHT22;8691;50.828;4.700;2022-12-22T09:27:39;9.60;99.90
17152;DHT22;8691;50.828;4.700;2022-12-22T09:30:06;9.60;99.90
17152;DHT22;8691;50.828;4.700;2022-12-22T09:32:33;9.60;99.90
17152;DHT22;8691;50.828;4.700;2022-12-22T09:35:00;9.70;99.90
17152;DHT22;8691;50.828;4.700;2022-12-22T09:37:26;9.80;99.90
17152;DHT22;8691;50.828;4.700;2022-12-22T09:39:53;9.80;99.90
17152;DHT22;8691;50.828;4.700;2022-12-22T09:42:20;9.80;99.90
17152;DHT22;8691;50.828;4.700;2022-12-22T09:44:48;10.00;99.90
17152;DHT22;8691;50.828;4.700;2022-12-22T09:47:25;10.00;99.90
17152;DHT22;8691;50.828;4.700;2022-12-22T09:49:47;10.00;99.90
17152;DHT22;8691;50.828;4.700;2022-12-22T09:52:24;10.00;99.90
17152;DHT22;8691;50.828;4.700;2022-12-22T09:54:49;10.00;99.90
17152;DHT22;8691;50.828;4.700;2022-12-22T09:57:15;10.00;99.90
17152;DHT22;8691;50.828;4.700;2022-12-22T09:59:42;10.00;99.90
17152;DHT22;8691;50.828;4.700;2022-12-22T10:05:04;10.20;99.90
17152;DHT22;8691;50.828;4.700;2022-12-22T10:07:36;10.20;99.90
17152;DHT22;8691;50.828;4.700;2022-12-22T10:10:06;10.30;99.90
17152;DHT22;8691;50.828;4.700;2022-12-22T10:12:31;10.30;99.90
17152;DHT22;8691;50.828;4.700;2022-12-22T10:14:59;10.40;99.90
17152;DHT22;8691;50.828;4.700;2022-12-22T10:17:32;10.40;99.90
17152;DHT22;8691;50.828;4.700;2022-12-22T10:20:22;10.30;99.90
17152;DHT22;8691;50.828;4.700;2022-12-22T10:25:33;10.30;99.90
17152;DHT22;8691;50.828;4.700;2022-12-22T10:28:00;10.40;99.90
17152;DHT22;8691;50.828;4.700;2022-12-22T10:30:30;10.50;99.90
17152;DHT22;8691;50.828;4.700;2022-12-22T10:33:14;10.50;99.90
17152;DHT22;8691;50.828;4.700;2022-12-22T10:35:55;10.40;99.90
17152;DHT22;8691;50.828;4.700;2022-12-22T10:40:50;10.40;99.90
17152;DHT22;8691;50.828;4.700;2022-12-22T10:43:33;10.40;99.90
17152;DHT22;8691;50.828;4.700;2022-12-22T10:45:56;10.40;99.90
17152;DHT22;8691;50.828;4.700;2022-12-22T10:48:33;10.30;99.90
17152;DHT22;8691;50.828;4.700;2022-12-22T10:50:59;10.30;99.90
17152;DHT22;8691;50.828;4.700;2022-12-22T10:56:11;10.40;99.90
17152;DHT22;8691;50.828;4.700;2022-12-22T10:58:47;10.40;99.90
17152;DHT22;8691;50.828;4.700;2022-12-22T11:01:15;10.40;99.90
17152;DHT22;8691;50.828;4.700;2022-12-22T11:03:40;10.50;99.90
17152;DHT22;8691;50.828;4.700;2022-12-22T11:06:12;10.40;99.90
17152;DHT22;8691;50.828;4.700;2022-12-22T11:08:40;10.30;99.90
17152;DHT22;8691;50.828;4.700;2022-12-22T11:11:13;10.30;99.90
17152;DHT22;8691;50.828;4.700;2022-12-22T11:13:44;10.20;99.90
17152;DHT22;8691;50.828;4.700;2022-12-22T11:16:42;10.20;99.90
17152;DHT22;8691;50.828;4.700;2022-12-22T11:21:48;10.20;99.90
17152;DHT22;8691;50.828;4.700;2022-12-22T11:24:35;10.20;99.90
17152;DHT22;8691;50.828;4.700;2022-12-22T11:27:29;10.30;99.90
17152;DHT22;8691;50.828;4.700;2022-12-22T11:40:43;10.60;99.90
17152;DHT22;8691;50.828;4.700;2022-12-22T11:43:23;10.70;99.90
17152;DHT22;8691;50.828;4.700;2022-12-22T11:51:20;11.00;99.90
17152;DHT22;8691;50.828;4.700;2022-12-22T11:56:38;10.90;99.90
17152;DHT22;8691;50.828;4.700;2022-12-22T11:59:26;10.70;99.90
17152;DHT22;8691;50.828;4.700;2022-12-22T12:05:10;10.90;99.90
17152;DHT22;8691;50.828;4.700;2022-12-22T12:07:35;11.00;99.90
17152;DHT22;8691;50.828;4.700;2022-12-22T12:10:12;11.00;99.90
17152;DHT22;8691;50.828;4.700;2022-12-22T12:12:45;11.10;99.90
17152;DHT22;8691;50.828;4.700;2022-12-22T12:15:15;11.20;99.90
17152;DHT22;8691;50.828;4.700;2022-12-22T12:17:45;11.30;99.90
17152;DHT22;8691;50.828;4.700;2022-12-22T12:26:06;11.10;99.90
17152;DHT22;8691;50.828;4.700;2022-12-22T12:28:45;11.20;99.90
17152;DHT22;8691;50.828;4.700;2022-12-22T12:31:06;11.20;99.90
17152;DHT22;8691;50.828;4.700;2022-12-22T12:33:51;11.10;99.90
17152;DHT22;8691;50.828;4.700;2022-12-22T12:44:27;11.00;99.90
17152;DHT22;8691;50.828;4.700;2022-12-22T12:47:03;10.90;99.90
17152;DHT22;8691;50.828;4.700;2022-12-22T12:52:05;10.80;99.90
17152;DHT22;8691;50.828;4.700;2022-12-22T12:56:59;10.40;99.90
17152;DHT22;8691;50.828;4.700;2022-12-22T13:08:12;10.50;99.90
17152;DHT22;8691;50.828;4.700;2022-12-22T13:16:19;10.60;99.90
17152;DHT22;8691;50.828;4.700;2022-12-22T13:26:17;10.50;99.90
17152;DHT22;8691;50.828;4.700;2022-12-22T13:28:43;10.40;99.90
17152;DHT22;8691;50.828;4.700;2022-12-22T13:31:12;10.30;99.90
17152;DHT22;8691;50.828;4.700;2022-12-22T13:33:38;10.10;99.90
17152;DHT22;8691;50.828;4.700;2022-12-22T13:36:05;10.00;99.90
17152;DHT22;8691;50.828;4.700;2022-12-22T13:38:33;9.90;99.90
17152;DHT22;8691;50.828;4.700;2022-12-22T13:40:59;9.90;99.90
17152;DHT22;8691;50.828;4.700;2022-12-22T13:43:26;9.90;99.90
17152;DHT22;8691;50.828;4.700;2022-12-22T13:45:54;10.00;99.90
17152;DHT22;8691;50.828;4.700;2022-12-22T13:48:36;10.00;99.90
17152;DHT22;8691;50.828;4.700;2022-12-22T13:50:59;10.00;99.90
17152;DHT22;8691;50.828;4.700;2022-12-22T13:53:41;10.00;99.90
17152;DHT22;8691;50.828;4.700;2022-12-22T13:56:07;10.00;99.90
17152;DHT22;8691;50.828;4.700;2022-12-22T13:58:32;10.00;99.90
17152;DHT22;8691;50.828;4.700;2022-12-22T14:01:11;10.00;99.90
17152;DHT22;8691;50.828;4.700;2022-12-22T14:03:30;10.00;99.90
17152;DHT22;8691;50.828;4.700;2022-12-22T14:05:57;10.00;99.90
17152;DHT22;8691;50.828;4.700;2022-12-22T14:08:24;10.00;99.90
17152;DHT22;8691;50.828;4.700;2022-12-22T14:10:51;10.00;99.90
17152;DHT22;8691;50.828;4.700;2022-12-22T14:13:18;10.00;99.90
17152;DHT22;8691;50.828;4.700;2022-12-22T14:15:44;10.00;99.90
17152;DHT22;8691;50.828;4.700;2022-12-22T14:18:15;10.00;99.90
17152;DHT22;8691;50.828;4.700;2022-12-22T14:20:38;10.00;99.90
17152;DHT22;8691;50.828;4.700;2022-12-22T14:23:05;10.00;99.90
17152;DHT22;8691;50.828;4.700;2022-12-22T14:25:32;10.00;99.90
17152;DHT22;8691;50.828;4.700;2022-12-22T14:27:58;10.00;99.90
17152;DHT22;8691;50.828;4.700;2022-12-22T14:30:34;10.00;99.90
17152;DHT22;8691;50.828;4.700;2022-12-22T14:32:51;10.00;99.90
17152;DHT22;8691;50.828;4.700;2022-12-22T14:37:54;10.00;99.90
17152;DHT22;8691;50.828;4.700;2022-12-22T14:40:31;10.00;99.90
17152;DHT22;8691;50.828;4.700;2022-12-22T14:42:58;10.00;99.90
17152;DHT22;8691;50.828;4.700;2022-12-22T14:45:24;10.10;99.90
17152;DHT22;8691;50.828;4.700;2022-12-22T14:47:52;10.10;99.90
17152;DHT22;8691;50.828;4.700;2022-12-22T14:50:25;10.10;99.90
17152;DHT22;8691;50.828;4.700;2022-12-22T14:52:54;10.10;99.90
17152;DHT22;8691;50.828;4.700;2022-12-22T14:55:34;10.10;99.90
17152;DHT22;8691;50.828;4.700;2022-12-22T14:58:13;10.10;99.90
17152;DHT22;8691;50.828;4.700;2022-12-22T15:00:38;10.10;99.90
17152;DHT22;8691;50.828;4.700;2022-12-22T15:05:50;10.20;99.90
17152;DHT22;8691;50.828;4.700;2022-12-22T15:08:38;10.30;99.90
17152;DHT22;8691;50.828;4.700;2022-12-22T15:11:12;10.30;99.90
17152;DHT22;8691;50.828;4.700;2022-12-22T15:13:38;10.30;99.90
17152;DHT22;8691;50.828;4.700;2022-12-22T15:16:05;10.30;99.90
17152;DHT22;8691;50.828;4.700;2022-12-22T15:18:32;10.30;99.90
17152;DHT22;8691;50.828;4.700;2022-12-22T15:20:58;10.30;99.90
17152;DHT22;8691;50.828;4.700;2022-12-22T15:23:26;10.30;99.90
17152;DHT22;8691;50.828;4.700;2022-12-22T15:25:52;10.30;99.90
17152;DHT22;8691;50.828;4.700;2022-12-22T15:28:19;10.30;99.90
17152;DHT22;8691;50.828;4.700;2022-12-22T15:30:46;10.40;99.90
17152;DHT22;8691;50.828;4.700;2022-12-22T15:33:14;10.40;99.90
17152;DHT22;8691;50.828;4.700;2022-12-22T15:35:40;10.40;99.90
17152;DHT22;8691;50.828;4.700;2022-12-22T15:38:13;10.50;99.90
17152;DHT22;8691;50.828;4.700;2022-12-22T15:40:39;10.50;99.90
17152;DHT22;8691;50.828;4.700;2022-12-22T15:43:06;10.50;99.90
17152;DHT22;8691;50.828;4.700;2022-12-22T15:45:33;10.50;99.90
17152;DHT22;8691;50.828;4.700;2022-12-22T15:48:00;10.50;99.90
17152;DHT22;8691;50.828;4.700;2022-12-22T15:50:29;10.50;99.90
17152;DHT22;8691;50.828;4.700;2022-12-22T15:52:55;10.50;99.90
17152;DHT22;8691;50.828;4.700;2022-12-22T15:55:21;10.50;99.90
17152;DHT22;8691;50.828;4.700;2022-12-22T15:57:48;10.60;99.90
17152;DHT22;8691;50.828;4.700;2022-12-22T16:00:15;10.60;99.90
17152;DHT22;8691;50.828;4.700;2022-12-22T16:02:42;10.60;99.90
17152;DHT22;8691;50.828;4.700;2022-12-22T16:05:09;10.70;99.90
17152;DHT22;8691;50.828;4.700;2022-12-22T16:07:36;10.70;99.90
17152;DHT22;8691;50.828;4.700;2022-12-22T16:10:03;10.70;99.90
17152;DHT22;8691;50.828;4.700;2022-12-22T16:12:29;10.70;99.90
17152;DHT22;8691;50.828;4.700;2022-12-22T16:14:56;10.80;99.90
17152;DHT22;8691;50.828;4.700;2022-12-22T16:17:24;10.70;99.90
17152;DHT22;8691;50.828;4.700;2022-12-22T16:19:50;10.80;99.90
17152;DHT22;8691;50.828;4.700;2022-12-22T16:22:18;10.70;99.90
17152;DHT22;8691;50.828;4.700;2022-12-22T16:24:44;10.80;99.90
17152;DHT22;8691;50.828;4.700;2022-12-22T16:27:10;10.80;99.90
17152;DHT22;8691;50.828;4.700;2022-12-22T16:29:37;10.80;99.90
17152;DHT22;8691;50.828;4.700;2022-12-22T16:32:18;10.80;99.90
17152;DHT22;8691;50.828;4.700;2022-12-22T16:34:40;10.80;99.90
17152;DHT22;8691;50.828;4.700;2022-12-22T16:37:07;10.80;99.90
17152;DHT22;8691;50.828;4.700;2022-12-22T16:39:34;10.80;99.90
17152;DHT22;8691;50.828;4.700;2022-12-22T16:42:01;10.70;99.90
17152;DHT22;8691;50.828;4.700;2022-12-22T16:44:28;10.80;99.90
17152;DHT22;8691;50.828;4.700;2022-12-22T16:46:55;10.70;99.90
17152;DHT22;8691;50.828;4.700;2022-12-22T16:49:22;10.70;99.90
17152;DHT22;8691;50.828;4.700;2022-12-22T16:51:49;10.80;99.90
17152;DHT22;8691;50.828;4.700;2022-12-22T16:54:15;10.80;99.90
17152;DHT22;8691;50.828;4.700;2022-12-22T16:56:42;10.70;99.90
17152;DHT22;8691;50.828;4.700;2022-12-22T16:59:09;10.70;99.90
17152;DHT22;8691;50.828;4.700;2022-12-22T17:01:37;10.70;99.90
17152;DHT22;8691;50.828;4.700;2022-12-22T17:04:05;10.70;99.90
17152;DHT22;8691;50.828;4.700;2022-12-22T17:06:31;10.80;99.90
17152;DHT22;8691;50.828;4.700;2022-12-22T17:08:59;10.80;99.90
17152;DHT22;8691;50.828;4.700;2022-12-22T17:11:26;10.90;99.90
17152;DHT22;8691;50.828;4.700;2022-12-22T17:13:55;10.80;99.90
17152;DHT22;8691;50.828;4.700;2022-12-22T17:16:21;10.90;99.90
17152;DHT22;8691;50.828;4.700;2022-12-22T17:18:47;10.90;99.90
17152;DHT22;8691;50.828;4.700;2022-12-22T17:21:15;10.90;99.90
17152;DHT22;8691;50.828;4.700;2022-12-22T17:23:46;10.90;99.90
17152;DHT22;8691;50.828;4.700;2022-12-22T17:26:11;10.90;99.90
17152;DHT22;8691;50.828;4.700;2022-12-22T17:28:37;10.80;99.90
17152;DHT22;8691;50.828;4.700;2022-12-22T17:31:05;10.80;99.90
17152;DHT22;8691;50.828;4.700;2022-12-22T17:33:32;10.80;99.90
17152;DHT22;8691;50.828;4.700;2022-12-22T17:35:59;10.90;99.90
17152;DHT22;8691;50.828;4.700;2022-12-22T17:38:26;10.90;99.90
17152;DHT22;8691;50.828;4.700;2022-12-22T17:40:52;10.90;99.90
17152;DHT22;8691;50.828;4.700;2022-12-22T17:43:19;10.90;99.90
17152;DHT22;8691;50.828;4.700;2022-12-22T17:45:46;11.00;99.90
17152;DHT22;8691;50.828;4.700;2022-12-22T17:48:14;11.00;99.90
17152;DHT22;8691;50.828;4.700;2022-12-22T17:50:42;11.10;99.90
17152;DHT22;8691;50.828;4.700;2022-12-22T17:53:11;11.10;99.90
17152;DHT22;8691;50.828;4.700;2022-12-22T17:55:36;11.10;99.90
17152;DHT22;8691;50.828;4.700;2022-12-22T17:58:03;11.10;99.90
17152;DHT22;8691;50.828;4.700;2022-12-22T18:00:30;11.00;99.90